Sandy Hook, KY (41171)

9:54 PM EDT on September 29, 2016 (GMT -0400)
Green | | Change Station

Elev 883 ft 38.19 °N, 83.08 °W | Updated 5 minutes ago

Overcast
Overcast
58.3 °F
Feels Like 58.3 °F
N
0.0
Wind Variable Wind from North
Gusts 0.0 mph

Today
High -- | Low -- °F
--% Chance of Precip.
Yesterday
High -- | Low -- °F
Precip. -- in
Pressure 30.06 in
Visibility 5.0 miles
Clouds Few 500 ft
Overcast 1000 ft
Dew Point 47 °F
Humidity 65%
Rainfall Not available.
Snow Depth Not available.
7:26 AM 7:17 PM
Waning Crescent, 1% visible
METAR KHTS 300151Z 23003KT 5SM -RA BR FEW005 OVC010 14/14 A3007 RMK AO2 RAB0055 SLP178 P0005 T01440139
Pressure 30.06 in
Visibility 5.0 miles
Clouds Few 500 ft
Overcast 1000 ft
Dew Point 47 °F
Humidity 65%
Rainfall Not available.
Snow Depth Not available.
7:26 AM 7:17 PM
Waning Crescent, 1% visible
METAR KHTS 300151Z 23003KT 5SM -RA BR FEW005 OVC010 14/14 A3007 RMK AO2 RAB0055 SLP178 P0005 T01440139

10-Day Weather Forecast

Almanac

Astronomy

Sep. 29, 2016 Rise Set
Actual Time
Civil Twilight
Nautical Twilight
Astronomical Twilight
Moon
Length of Visible Light
Length of Day
Tomorrow will be .
, % of the Moon is Illuminated

Today's Extremes

State Highs State Lows

Community

WunderPhotos

Upload Photos

1,942,628 photos uploaded!

WunderBlog® & News

Nearby

Air Quality

  Air Quality AQ Index Pollutant
Not available.

Snow Depth

Station Depth Elevation

Earthquake Activity

City Distance Mag. Time & Date
Minimum magnitude displayed is 2.5.

Coastal Water Temperatures

Place Temperature

Stations

Nearby Weather Stations

Station Location Temp. Windchill Dew Point Humidity Wind Precip. Elev Updated Type
                   

Watches & Warnings

There are currently no watches in effect.